createdAt,value
2019-01-19T00:01:39.270Z,11.13
2019-01-19T00:04:38.367Z,11.53
2019-01-19T00:07:28.429Z,11.40
2019-01-19T00:10:30.485Z,11.13
2019-01-19T00:13:23.434Z,9.80
2019-01-19T00:16:16.291Z,10.90
2019-01-19T00:19:28.632Z,11.30
2019-01-19T00:22:46.190Z,10.47
2019-01-19T00:25:42.091Z,11.97
2019-01-19T00:28:52.688Z,13.03
2019-01-19T00:31:45.986Z,11.60
2019-01-19T00:35:17.614Z,9.93
2019-01-19T00:38:10.919Z,10.40
2019-01-19T00:41:09.593Z,10.77
2019-01-19T00:43:59.647Z,11.13
2019-01-19T00:46:58.742Z,11.80
2019-01-19T00:49:49.044Z,11.83
2019-01-19T00:52:39.355Z,11.00
2019-01-19T00:55:40.968Z,11.43
2019-01-19T00:58:33.996Z,11.17
2019-01-19T01:01:26.833Z,11.57
2019-01-19T01:04:31.772Z,10.23
2019-01-19T01:07:24.813Z,11.17
2019-01-19T01:10:30.031Z,11.23
2019-01-19T01:13:25.837Z,11.03
2019-01-19T01:16:34.035Z,11.40
2019-01-19T01:19:35.677Z,11.37
2019-01-19T01:22:37.512Z,11.97
2019-01-19T01:25:27.601Z,11.80
2019-01-19T01:28:26.771Z,11.93
2019-01-19T01:31:19.762Z,10.63
2019-01-19T01:34:18.902Z,9.73
2019-01-19T01:37:18.112Z,11.00
2019-01-19T01:40:08.322Z,10.27
2019-01-19T01:42:58.350Z,10.17
2019-01-19T01:46:16.704Z,10.73
2019-01-19T01:49:07.013Z,11.67
2019-01-19T01:52:08.667Z,10.97
2019-01-19T01:55:01.042Z,11.37
2019-01-19T01:57:51.762Z,11.93
2019-01-19T02:00:44.689Z,11.40
2019-01-19T02:03:50.007Z,10.63
2019-01-19T02:06:51.905Z,10.23
2019-01-19T02:09:56.694Z,10.07
2019-01-19T02:12:46.956Z,11.37
2019-01-19T02:15:49.199Z,11.03
2019-01-19T02:18:58.652Z,10.43
2019-01-19T02:22:12.605Z,9.87
2019-01-19T02:25:14.584Z,10.87
2019-01-19T02:28:10.497Z,11.10
2019-01-19T02:31:03.716Z,10.00
2019-01-19T02:34:02.788Z,11.37
2019-01-19T02:37:01.633Z,11.20
2019-01-19T02:39:54.379Z,11.87
2019-01-19T02:43:02.040Z,11.63
2019-01-19T02:46:01.497Z,11.30
2019-01-19T02:48:59.984Z,10.00
2019-01-19T02:52:02.189Z,10.77
2019-01-19T02:55:16.012Z,10.97
2019-01-19T02:58:08.879Z,11.23
2019-01-19T03:01:21.425Z,10.97
2019-01-19T03:04:36.890Z,9.73
2019-01-19T03:07:36.219Z,9.20
2019-01-19T03:10:44.294Z,11.10
2019-01-19T03:13:50.675Z,10.40
2019-01-19T03:17:00.432Z,10.80
2019-01-19T03:20:02.497Z,11.57
2019-01-19T03:22:55.558Z,11.67
2019-01-19T03:25:51.692Z,12.43
2019-01-19T03:28:41.548Z,12.53
2019-01-19T03:32:03.130Z,10.50
2019-01-19T03:34:59.493Z,10.43
2019-01-19T03:37:55.218Z,11.23
2019-01-19T03:40:57.316Z,12.40
2019-01-19T03:43:47.398Z,12.93
2019-01-19T03:46:46.489Z,12.10
2019-01-19T03:49:39.417Z,11.77
2019-01-19T03:52:44.603Z,10.83
2019-01-19T03:55:52.734Z,10.43
2019-01-19T03:59:06.606Z,19.07
2019-01-19T04:02:05.151Z,11.97
2019-01-19T04:05:09.745Z,12.83
2019-01-19T04:08:02.577Z,12.03
2019-01-19T04:11:04.860Z,13.00
2019-01-19T04:13:58.220Z,10.73
2019-01-19T04:16:51.088Z,11.47
2019-01-19T04:19:52.746Z,11.73
2019-01-19T04:22:39.989Z,12.63
2019-01-19T04:25:29.764Z,11.30
2019-01-19T04:28:17.939Z,15.77
2019-01-19T04:31:05.059Z,14.20
2019-01-19T04:33:52.606Z,16.20
2019-01-19T04:36:40.009Z,15.10
2019-01-19T04:39:26.758Z,12.77
2019-01-19T04:42:14.284Z,12.70
2019-01-19T04:45:01.387Z,13.00
2019-01-19T04:47:48.969Z,14.80
2019-01-19T04:50:35.878Z,13.53
2019-01-19T04:53:22.846Z,15.70
2019-01-19T04:56:09.902Z,17.43
2019-01-19T04:58:56.854Z,18.07
2019-01-19T05:01:44.130Z,20.23
2019-01-19T05:04:31.129Z,22.27
2019-01-19T05:07:18.148Z,20.00
2019-01-19T05:10:08.478Z,21.50
2019-01-19T05:12:55.792Z,21.13
2019-01-19T05:15:42.997Z,21.73
2019-01-19T05:18:30.229Z,22.53
2019-01-19T05:21:17.896Z,23.50
2019-01-19T05:24:05.277Z,19.20
2019-01-19T05:26:52.595Z,17.13
2019-01-19T05:29:39.804Z,17.97
2019-01-19T05:32:27.444Z,18.13
2019-01-19T05:35:15.093Z,16.07
2019-01-19T05:38:02.393Z,12.97
2019-01-19T05:40:49.324Z,13.20
2019-01-19T05:43:36.611Z,13.70
2019-01-19T05:46:23.664Z,14.47
2019-01-19T05:49:11.250Z,12.87
2019-01-19T05:51:58.080Z,14.23
2019-01-19T05:54:45.183Z,15.53
2019-01-19T05:57:32.182Z,17.47
2019-01-19T06:00:23.171Z,17.67
2019-01-19T06:03:10.380Z,16.03
2019-01-19T06:05:57.645Z,13.90
2019-01-19T06:08:44.692Z,15.27
2019-01-19T06:11:31.809Z,20.97
2019-01-19T06:14:19.021Z,17.73
2019-01-19T06:17:06.363Z,20.20
2019-01-19T06:19:53.442Z,19.93
2019-01-19T06:22:40.661Z,20.27
2019-01-19T06:25:27.601Z,20.67
2019-01-19T06:28:14.972Z,19.57
2019-01-19T06:31:02.155Z,17.77
2019-01-19T06:33:49.065Z,17.20
2019-01-19T06:36:36.221Z,17.43
2019-01-19T06:39:23.501Z,18.17
2019-01-19T06:42:10.332Z,17.70
2019-01-19T06:44:57.269Z,18.30
2019-01-19T06:47:44.279Z,18.70
2019-01-19T06:50:31.164Z,19.13
2019-01-19T06:53:18.204Z,19.80
2019-01-19T06:56:05.500Z,20.00
2019-01-19T06:58:52.629Z,21.37
2019-01-19T07:01:39.631Z,18.83
2019-01-19T07:04:26.877Z,17.60
2019-01-19T07:07:14.264Z,17.70
2019-01-19T07:10:01.367Z,17.83
2019-01-19T07:12:48.596Z,17.60
2019-01-19T07:15:35.595Z,16.90
2019-01-19T07:18:22.750Z,17.30
2019-01-19T07:21:09.722Z,16.10
2019-01-19T07:23:56.747Z,24.43
2019-01-19T07:26:44.101Z,17.80
2019-01-19T07:29:31.124Z,15.07
2019-01-19T07:32:18.275Z,16.90
2019-01-19T07:35:05.676Z,14.93
2019-01-19T07:37:53.046Z,15.17
2019-01-19T07:40:40.308Z,16.30
2019-01-19T07:43:27.496Z,17.30
2019-01-19T07:46:14.980Z,17.73
2019-01-19T07:49:02.140Z,17.67
2019-01-19T07:51:49.077Z,17.63
2019-01-19T07:54:36.218Z,16.90
2019-01-19T07:57:23.529Z,15.80
2019-01-19T08:00:20.026Z,18.73
2019-01-19T08:03:07.224Z,20.47
2019-01-19T08:05:54.157Z,22.17
2019-01-19T08:08:41.219Z,19.20
2019-01-19T08:11:28.436Z,22.43
2019-01-19T08:14:15.531Z,20.20
2019-01-19T08:17:02.452Z,21.90
2019-01-19T08:19:49.597Z,21.73
2019-01-19T08:22:36.521Z,22.03
2019-01-19T08:25:23.512Z,20.43
2019-01-19T08:28:11.028Z,21.30
2019-01-19T08:30:58.249Z,19.10
2019-01-19T08:33:45.526Z,19.00
2019-01-19T08:36:32.680Z,21.17
2019-01-19T08:39:19.826Z,22.90
2019-01-19T08:42:07.301Z,21.90
2019-01-19T08:44:55.749Z,23.97
2019-01-19T08:47:42.831Z,26.53
2019-01-19T08:50:30.245Z,24.13
2019-01-19T08:53:16.986Z,24.23
2019-01-19T08:56:04.654Z,30.17
2019-01-19T08:58:51.592Z,28.57
2019-01-19T09:01:38.545Z,33.50
2019-01-19T09:04:25.637Z,29.50
2019-01-19T09:07:12.649Z,36.30
2019-01-19T09:09:59.860Z,38.67
2019-01-19T09:12:47.236Z,34.43
2019-01-19T09:15:34.611Z,32.50
2019-01-19T09:18:21.869Z,32.10
2019-01-19T09:21:09.121Z,23.83
2019-01-19T09:23:58.211Z,28.63
2019-01-19T09:26:45.479Z,29.57
2019-01-19T09:29:32.760Z,29.07
2019-01-19T09:32:20.214Z,28.93
2019-01-19T09:35:09.621Z,29.03
2019-01-19T09:37:57.105Z,31.73
2019-01-19T09:40:44.057Z,30.03
2019-01-19T09:43:31.041Z,30.67
2019-01-19T09:46:18.205Z,27.10
2019-01-19T09:49:05.813Z,23.77
2019-01-19T09:51:52.976Z,25.00
2019-01-19T09:54:40.401Z,11.77
2019-01-19T09:57:27.350Z,20.50
2019-01-19T10:00:20.285Z,18.13
2019-01-19T10:03:07.569Z,11.03
2019-01-19T10:05:54.527Z,11.63
2019-01-19T10:08:41.672Z,16.33
2019-01-19T10:11:29.035Z,15.30
2019-01-19T10:14:16.107Z,16.77
2019-01-19T10:17:03.096Z,13.40
2019-01-19T10:19:50.080Z,11.90
2019-01-19T10:22:37.123Z,10.97
2019-01-19T10:25:24.550Z,10.97
2019-01-19T10:28:11.619Z,9.63
2019-01-19T10:30:59.021Z,11.50
2019-01-19T10:33:46.060Z,10.07
2019-01-19T10:36:33.836Z,11.80
2019-01-19T10:39:20.580Z,10.30
2019-01-19T10:42:07.944Z,11.33
2019-01-19T10:44:54.918Z,13.00
2019-01-19T10:47:41.929Z,11.47
2019-01-19T10:50:29.021Z,12.00
2019-01-19T10:53:16.377Z,11.03
2019-01-19T10:56:03.797Z,12.00
2019-01-19T10:58:50.829Z,14.40
2019-01-19T11:01:37.878Z,10.57
2019-01-19T11:04:25.318Z,16.53
2019-01-19T11:07:12.580Z,10.93
2019-01-19T11:09:59.255Z,11.87
2019-01-19T11:12:46.683Z,12.93
2019-01-19T11:15:34.248Z,12.17
2019-01-19T11:18:21.240Z,12.37
2019-01-19T11:21:08.290Z,12.93
2019-01-19T11:23:55.367Z,13.00
2019-01-19T11:26:42.330Z,12.20
2019-01-19T11:29:29.358Z,12.73
2019-01-19T11:32:16.449Z,14.87
2019-01-19T11:35:03.949Z,21.77
2019-01-19T11:37:51.135Z,16.57
2019-01-19T11:40:38.247Z,16.33
2019-01-19T11:43:25.374Z,31.60
2019-01-19T11:46:12.604Z,21.90
2019-01-19T11:48:59.837Z,17.70
2019-01-19T11:51:47.147Z,14.20
2019-01-19T11:54:34.481Z,11.60
2019-01-19T11:57:21.178Z,11.20
2019-01-19T12:00:18.163Z,28.60
2019-01-19T12:03:06.105Z,15.40
2019-01-19T12:05:52.972Z,12.00
2019-01-19T12:08:39.858Z,11.03
2019-01-19T12:11:27.019Z,11.17
2019-01-19T12:14:14.144Z,10.73
2019-01-19T12:17:01.141Z,10.50
2019-01-19T12:19:48.238Z,11.13
2019-01-19T12:22:35.498Z,11.87
2019-01-19T12:25:26.643Z,11.93
2019-01-19T12:28:13.943Z,11.67
2019-01-19T12:31:01.280Z,11.40
2019-01-19T12:33:48.316Z,13.40
2019-01-19T12:36:35.532Z,13.60
2019-01-19T12:39:22.531Z,12.33
2019-01-19T12:42:09.811Z,13.03
2019-01-19T12:44:57.290Z,12.87
2019-01-19T12:47:44.475Z,13.07
2019-01-19T12:50:31.898Z,12.13
2019-01-19T12:53:18.625Z,13.77
2019-01-19T12:56:05.839Z,12.70
2019-01-19T12:58:53.136Z,13.33
2019-01-19T13:01:40.220Z,19.67
2019-01-19T13:04:27.050Z,14.67
2019-01-19T13:07:14.410Z,13.23
2019-01-19T13:10:01.648Z,13.17
2019-01-19T13:12:49.731Z,13.10
2019-01-19T13:15:49.042Z,13.40
2019-01-19T13:18:45.146Z,12.93
2019-01-19T13:21:54.752Z,12.40
2019-01-19T13:24:59.894Z,12.63
2019-01-19T13:27:58.620Z,12.50
2019-01-19T13:30:49.000Z,12.40
2019-01-19T13:33:41.775Z,12.87
2019-01-19T13:36:40.953Z,13.23
2019-01-19T13:39:31.130Z,12.67
2019-01-19T13:42:48.383Z,12.03
2019-01-19T13:45:54.841Z,13.27
2019-01-19T13:49:06.007Z,13.23
2019-01-19T13:51:56.131Z,13.10
2019-01-19T13:54:58.919Z,13.85
2019-01-19T13:57:54.866Z,13.00
2019-01-19T14:00:48.871Z,13.10
2019-01-19T14:03:51.512Z,13.05
2019-01-19T14:07:04.362Z,12.50
2019-01-19T14:10:12.685Z,13.28
2019-01-19T14:13:25.749Z,13.40
2019-01-19T14:16:22.217Z,12.98
2019-01-19T14:19:18.722Z,13.93
2019-01-19T14:22:12.562Z,14.05
2019-01-19T14:25:03.283Z,15.85
2019-01-19T14:27:59.987Z,13.58
2019-01-19T14:30:59.850Z,13.72
2019-01-19T14:34:09.696Z,13.90
2019-01-19T14:37:08.716Z,14.83
2019-01-19T14:40:11.076Z,14.83
2019-01-19T14:43:07.041Z,14.70
2019-01-19T14:46:13.496Z,13.97
2019-01-19T14:49:09.698Z,15.23
2019-01-19T14:52:08.513Z,14.97
2019-01-19T14:55:01.303Z,14.10
2019-01-19T14:57:57.356Z,14.30
2019-01-19T15:00:53.510Z,14.53
2019-01-19T15:03:46.409Z,13.97
2019-01-19T15:07:02.201Z,14.17
2019-01-19T15:10:16.060Z,15.23
2019-01-19T15:13:12.252Z,14.07
2019-01-19T15:16:14.130Z,14.63
2019-01-19T15:19:26.469Z,15.20
2019-01-19T15:22:31.886Z,15.70
2019-01-19T15:25:27.785Z,14.57
2019-01-19T15:28:34.353Z,15.17
2019-01-19T15:31:33.221Z,14.97
2019-01-19T15:34:29.365Z,14.73
2019-01-19T15:37:22.232Z,15.70
2019-01-19T15:40:34.680Z,15.93
2019-01-19T15:43:50.015Z,15.53
2019-01-19T15:46:59.472Z,15.87
2019-01-19T15:50:11.932Z,16.33
2019-01-19T15:53:07.934Z,16.10
2019-01-19T15:55:58.065Z,15.63
2019-01-19T15:58:50.976Z,16.30
2019-01-19T16:01:55.916Z,15.27
2019-01-19T16:04:48.830Z,15.17
2019-01-19T16:07:41.779Z,16.97
2019-01-19T16:10:50.774Z,16.27
2019-01-19T16:13:43.979Z,28.77
2019-01-19T16:16:51.898Z,40.80
2019-01-19T16:20:01.502Z,19.87
2019-01-19T16:23:00.678Z,20.17
2019-01-19T16:26:10.151Z,29.90
2019-01-19T16:29:19.214Z,20.37
2019-01-19T16:32:09.294Z,20.53
2019-01-19T16:35:08.841Z,18.53
2019-01-19T16:38:04.971Z,18.53
2019-01-19T16:40:57.711Z,19.20
2019-01-19T16:43:47.887Z,20.23
2019-01-19T16:46:46.663Z,20.50
2019-01-19T16:49:39.834Z,20.47
2019-01-19T16:52:42.195Z,22.73
2019-01-19T16:55:41.327Z,20.50
2019-01-19T16:58:39.897Z,20.07
2019-01-19T17:01:50.809Z,19.60
2019-01-19T17:04:40.837Z,17.90
2019-01-19T17:07:30.985Z,18.37
2019-01-19T17:10:38.998Z,16.63
2019-01-19T17:13:34.801Z,14.83
2019-01-19T17:16:24.699Z,14.13
2019-01-19T17:19:17.414Z,15.37
2019-01-19T17:22:16.301Z,20.03
2019-01-19T17:25:06.523Z,13.87
2019-01-19T17:28:08.386Z,16.43
2019-01-19T17:31:16.062Z,17.87
2019-01-19T17:34:33.620Z,15.13
2019-01-19T17:37:32.358Z,15.83
2019-01-19T17:40:40.814Z,18.10
2019-01-19T17:43:42.674Z,15.57
2019-01-19T17:46:35.242Z,16.70
2019-01-19T17:49:28.089Z,14.10
2019-01-19T17:52:39.314Z,24.10
2019-01-19T17:55:35.417Z,14.33
2019-01-19T17:58:31.222Z,14.60
2019-01-19T18:01:46.841Z,13.93
2019-01-19T18:04:40.114Z,12.73
2019-01-19T18:07:49.784Z,12.50
2019-01-19T18:10:58.223Z,12.33
2019-01-19T18:14:21.649Z,11.73
2019-01-19T18:17:35.654Z,12.60
2019-01-19T18:20:40.697Z,12.67
2019-01-19T18:23:33.621Z,21.83
2019-01-19T18:26:23.942Z,17.20
2019-01-19T18:29:14.437Z,16.67
2019-01-19T18:32:10.892Z,14.70
2019-01-19T18:35:23.552Z,12.50
2019-01-19T18:38:29.946Z,12.33
2019-01-19T18:41:29.037Z,11.13
2019-01-19T18:44:28.099Z,11.40
2019-01-19T18:47:33.576Z,12.27
2019-01-19T18:50:46.040Z,20.60
2019-01-19T18:53:42.190Z,21.30
2019-01-19T18:57:03.742Z,62.43
2019-01-19T18:59:59.230Z,36.07
2019-01-19T19:03:19.573Z,35.33
2019-01-19T19:06:42.334Z,11.13
2019-01-19T19:09:32.636Z,11.00
2019-01-19T19:12:28.454Z,14.60
2019-01-19T19:15:30.536Z,20.70
2019-01-19T19:18:41.832Z,32.70
2019-01-19T19:21:31.925Z,15.83
2019-01-19T19:24:41.489Z,14.87
2019-01-19T19:27:40.316Z,18.10
2019-01-19T19:30:36.468Z,20.47
2019-01-19T19:33:38.540Z,19.77
2019-01-19T19:36:46.587Z,15.20
2019-01-19T19:39:36.853Z,15.83
2019-01-19T19:42:36.096Z,17.80
2019-01-19T19:45:41.094Z,16.13
2019-01-19T19:48:43.226Z,18.47
2019-01-19T19:51:39.109Z,13.97
2019-01-19T19:54:26.119Z,14.00
2019-01-19T19:57:13.466Z,16.23
2019-01-19T20:00:00.400Z,14.67
2019-01-19T20:02:47.546Z,13.53
2019-01-19T20:05:34.643Z,12.27
2019-01-19T20:08:21.574Z,13.43
2019-01-19T20:11:08.931Z,12.43
2019-01-19T20:13:55.956Z,13.07
2019-01-19T20:16:43.171Z,14.20
2019-01-19T20:19:30.493Z,13.37
2019-01-19T20:22:17.543Z,11.97
2019-01-19T20:25:06.659Z,13.07
2019-01-19T20:27:53.918Z,13.27
2019-01-19T20:30:41.166Z,12.60
2019-01-19T20:33:28.109Z,11.83
2019-01-19T20:36:15.467Z,14.23
2019-01-19T20:39:02.643Z,16.00
2019-01-19T20:41:49.765Z,13.67
2019-01-19T20:44:36.845Z,17.10
2019-01-19T20:47:23.926Z,13.13
2019-01-19T20:50:14.039Z,11.57
2019-01-19T20:53:01.044Z,11.63
2019-01-19T20:55:48.286Z,12.33
2019-01-19T20:58:35.382Z,12.60
2019-01-19T21:01:22.321Z,12.97
2019-01-19T21:04:15.741Z,13.70
2019-01-19T21:06:58.655Z,13.23
2019-01-19T21:09:45.956Z,13.50
2019-01-19T21:12:32.731Z,14.03
2019-01-19T21:15:20.112Z,14.77
2019-01-19T21:18:07.063Z,14.90
2019-01-19T21:20:54.084Z,14.63
2019-01-19T21:23:40.861Z,13.67
2019-01-19T21:26:27.766Z,13.23
2019-01-19T21:29:14.953Z,15.50
2019-01-19T21:32:02.103Z,13.07
2019-01-19T21:34:49.176Z,11.57
2019-01-19T21:37:36.133Z,14.73
2019-01-19T21:40:23.445Z,13.90
2019-01-19T21:43:10.795Z,12.93
2019-01-19T21:45:57.728Z,12.33
2019-01-19T21:48:44.992Z,14.07
2019-01-19T21:51:32.062Z,13.07
2019-01-19T21:54:19.419Z,13.27
2019-01-19T21:57:06.419Z,12.53
2019-01-19T21:59:53.481Z,11.63
2019-01-19T22:02:40.498Z,11.40
2019-01-19T22:05:27.677Z,11.97
2019-01-19T22:08:14.981Z,11.53
2019-01-19T22:11:02.386Z,11.80
2019-01-19T22:13:49.357Z,11.57
2019-01-19T22:16:36.673Z,11.13
2019-01-19T22:19:23.506Z,11.30
2019-01-19T22:22:10.494Z,10.97
2019-01-19T22:24:57.794Z,11.67
2019-01-19T22:27:48.590Z,12.17
2019-01-19T22:30:35.704Z,12.47
2019-01-19T22:33:23.101Z,11.57
2019-01-19T22:36:09.997Z,13.33
2019-01-19T22:38:56.828Z,11.07
2019-01-19T22:41:44.134Z,10.43
2019-01-19T22:44:31.420Z,10.53
2019-01-19T22:47:18.529Z,11.63
2019-01-19T22:50:09.248Z,10.73
2019-01-19T22:52:56.300Z,11.30
2019-01-19T22:55:42.989Z,13.90
2019-01-19T22:58:29.717Z,12.87
2019-01-19T23:01:26.083Z,14.80
2019-01-19T23:04:13.224Z,14.67
2019-01-19T23:07:00.663Z,14.23
2019-01-19T23:09:47.673Z,12.73
2019-01-19T23:12:34.627Z,12.27
2019-01-19T23:15:21.921Z,13.83
2019-01-19T23:18:09.002Z,12.27
2019-01-19T23:20:56.182Z,12.83
2019-01-19T23:23:43.417Z,13.67
2019-01-19T23:26:30.822Z,15.27
2019-01-19T23:29:17.845Z,14.90
2019-01-19T23:32:05.275Z,13.43
2019-01-19T23:34:52.459Z,13.17
2019-01-19T23:37:39.707Z,12.50
2019-01-19T23:40:27.049Z,13.57
2019-01-19T23:43:14.567Z,12.07
2019-01-19T23:46:01.903Z,13.37
2019-01-19T23:48:49.074Z,14.10
2019-01-19T23:51:36.194Z,11.87
2019-01-19T23:54:23.488Z,13.00
2019-01-19T23:57:10.778Z,12.33
2019-01-19T23:59:57.829Z,12.73
